TimePST,TemperatureF,Dew PointF,Humidity,Sea Level PressureIn,VisibilityMPH,Wind Direction,Wind SpeedMPH,Gust SpeedMPH,PrecipitationIn,Events,Conditions,WindDirDegrees,DateUTC
12:52 AM,53.1,26.1,35,29.91,10.0,SW,8.1,-,N/A,,Clear,230,2012-12-08 08:52:00
1:52 AM,55.0,25.0,31,29.91,10.0,WSW,9.2,-,N/A,,Clear,240,2012-12-08 09:52:00
2:52 AM,53.1,24.1,32,29.90,10.0,WNW,4.6,-,N/A,,Clear,300,2012-12-08 10:52:00
3:52 AM,52.0,24.1,34,29.90,10.0,West,4.6,-,N/A,,Clear,280,2012-12-08 11:52:00
4:52 AM,44.1,25.0,47,29.91,10.0,NE,4.6,-,N/A,,Clear,40,2012-12-08 12:52:00
5:52 AM,44.1,26.1,49,29.92,10.0,NNW,3.5,-,N/A,,Clear,330,2012-12-08 13:52:00
6:52 AM,44.1,25.0,47,29.94,10.0,Calm,Calm,-,N/A,,Clear,0,2012-12-08 14:52:00
7:52 AM,52.0,27.0,38,29.96,10.0,Calm,Calm,-,N/A,,Clear,0,2012-12-08 15:52:00
8:52 AM,57.9,27.0,31,29.96,10.0,Calm,Calm,-,N/A,,Clear,0,2012-12-08 16:52:00
9:52 AM,61.0,30.0,31,29.97,10.0,Calm,Calm,-,N/A,,Clear,0,2012-12-08 17:52:00
10:52 AM,64.9,30.0,27,29.95,10.0,Calm,Calm,-,N/A,,Clear,0,2012-12-08 18:52:00
11:52 AM,69.1,32.0,25,29.92,10.0,Variable,3.5,-,N/A,,Clear,0,2012-12-08 19:52:00
12:52 PM,70.0,30.0,23,29.89,10.0,Calm,Calm,-,N/A,,Clear,0,2012-12-08 20:52:00
1:52 PM,71.1,28.9,21,29.87,10.0,Variable,3.5,-,N/A,,Clear,0,2012-12-08 21:52:00
2:52 PM,72.0,30.0,21,29.87,10.0,ESE,4.6,-,N/A,,Clear,110,2012-12-08 22:52:00
4:52 PM,64.9,30.9,28,29.86,10.0,SE,4.6,-,N/A,,Clear,130,2012-12-09 00:52:00
5:52 PM,60.1,28.9,31,29.87,10.0,Calm,Calm,-,N/A,,Clear,0,2012-12-09 01:52:00
6:52 PM,55.9,26.1,32,29.88,10.0,NNW,3.5,-,N/A,,Clear,340,2012-12-09 02:52:00
7:52 PM,54.0,25.0,33,29.89,10.0,NNW,9.2,-,N/A,,Clear,330,2012-12-09 03:52:00
9:52 PM,54.0,25.0,33,29.91,10.0,NNW,4.6,-,N/A,,Clear,330,2012-12-09 05:52:00
10:52 PM,50.0,24.1,36,29.91,10.0,Calm,Calm,-,N/A,,Clear,0,2012-12-09 06:52:00
11:52 PM,51.1,25.0,36,29.91,10.0,Calm,Calm,-,N/A,,Clear,0,2012-12-09 07:52:00